Time;durP1;ratioP1;P1;durP2;ratioP2;P2;SDS_P1;SDS_P2;PMS_P1;PMS_P2;Temp;Humidity;BMP_temperature;BMP_pressure;BME280_temperature;BME280_humidity;BME280_pressure;Samples;Min_cycle;Max_cycle;Signal;HPM_P1;HPM_P2
2020/12/04 00:00:12;;;;;;;20.05;13.75;;;4.50;99.90;;;;;;5117457;28;20016;-89
2020/12/04 00:02:39;;;;;;;16.92;11.68;;;4.40;99.90;;;;;;5122165;28;20029;-89
2020/12/04 00:05:06;;;;;;;16.30;12.20;;;4.50;99.90;;;;;;5120206;28;20028;-89
2020/12/04 00:07:32;;;;;;;17.73;12.98;;;4.40;99.90;;;;;;5119425;28;20473;-90
2020/12/04 00:09:58;;;;;;;15.27;12.40;;;4.50;99.90;;;;;;5117532;28;20039;-90
2020/12/04 00:12:24;;;;;;;16.75;11.35;;;4.40;99.90;;;;;;5115852;28;20465;-89
2020/12/04 00:14:49;;;;;;;16.10;11.48;;;4.40;99.90;;;;;;5118825;28;20019;-89
2020/12/04 00:17:15;;;;;;;15.02;10.93;;;4.50;99.90;;;;;;5116304;28;20031;-89
2020/12/04 00:19:41;;;;;;;16.60;10.68;;;4.40;99.90;;;;;;5116238;28;20016;-89
2020/12/04 00:22:10;;;;;;;15.13;11.10;;;4.50;99.90;;;;;;5116620;28;20015;-90
2020/12/04 00:24:35;;;;;;;15.75;11.15;;;4.50;99.90;;;;;;5118566;28;20028;-89
2020/12/04 00:27:01;;;;;;;15.52;11.20;;;4.50;99.90;;;;;;5117464;28;20110;-92
2020/12/04 00:29:27;;;;;;;14.63;10.13;;;4.50;99.90;;;;;;5116603;28;20027;-90
2020/12/04 00:31:54;;;;;;;15.43;10.60;;;4.50;99.90;;;;;;5115274;28;20031;-89
2020/12/04 00:34:20;;;;;;;14.88;10.38;;;4.50;99.90;;;;;;5115931;28;20012;-91
2020/12/04 00:36:49;;;;;;;15.30;10.73;;;4.50;99.90;;;;;;5116281;28;20026;-90
2020/12/04 00:39:15;;;;;;;15.13;11.07;;;4.60;99.90;;;;;;5117510;28;20497;-92
2020/12/04 00:41:42;;;;;;;14.45;10.48;;;4.50;99.90;;;;;;5117340;28;20084;-91
2020/12/04 00:44:08;;;;;;;13.60;10.00;;;4.50;99.90;;;;;;5119796;28;20036;-90
2020/12/04 00:46:35;;;;;;;13.98;9.80;;;4.50;99.90;;;;;;5117718;28;20027;-91
2020/12/04 00:49:03;;;;;;;15.00;10.20;;;4.50;99.90;;;;;;5100474;28;20019;-90
2020/12/04 00:51:28;;;;;;;14.77;10.45;;;4.50;99.90;;;;;;5118213;28;20028;-90
2020/12/04 00:53:54;;;;;;;17.80;10.70;;;4.50;99.90;;;;;;5116014;28;20027;-92
2020/12/04 00:56:31;;;;;;;14.73;10.07;;;4.50;99.90;;;;;;5118388;28;20053;-90
2020/12/04 00:58:57;;;;;;;13.80;9.82;;;4.50;99.90;;;;;;5117462;28;20023;-91
2020/12/04 01:01:22;;;;;;;13.55;10.38;;;4.50;99.90;;;;;;5115673;28;20023;-89
2020/12/04 01:03:48;;;;;;;15.65;10.60;;;4.60;99.90;;;;;;5116423;28;20054;-91
2020/12/04 01:06:13;;;;;;;12.90;9.73;;;4.60;99.90;;;;;;5114984;28;20016;-89
2020/12/04 01:08:40;;;;;;;14.77;10.65;;;4.50;99.90;;;;;;5115092;28;20024;-90
2020/12/04 01:11:06;;;;;;;13.80;10.10;;;4.50;99.90;;;;;;5098204;28;20036;-90
2020/12/04 01:13:31;;;;;;;13.10;9.82;;;4.60;99.90;;;;;;5116917;28;20431;-89
2020/12/04 01:15:57;;;;;;;14.30;10.13;;;4.60;99.90;;;;;;5114459;28;20028;-90
2020/12/04 01:18:23;;;;;;;14.57;10.15;;;4.60;99.90;;;;;;5115417;28;20023;-89
2020/12/04 01:20:48;;;;;;;15.18;10.85;;;4.60;99.90;;;;;;5115895;28;20161;-90
2020/12/04 01:23:14;;;;;;;13.85;10.00;;;4.60;99.90;;;;;;5110502;28;20034;-90
2020/12/04 01:25:42;;;;;;;13.52;9.85;;;4.60;99.90;;;;;;5110114;28;20031;-90
2020/12/04 01:28:08;;;;;;;13.55;10.73;;;4.60;99.90;;;;;;5110705;28;20015;-90
2020/12/04 01:30:34;;;;;;;15.68;10.68;;;4.60;99.90;;;;;;5108810;28;20092;-87
2020/12/04 01:33:00;;;;;;;13.43;10.10;;;4.60;99.90;;;;;;5093382;28;20028;-90
2020/12/04 01:35:26;;;;;;;14.43;10.20;;;4.60;99.90;;;;;;5103069;28;20062;-90
2020/12/04 01:37:51;;;;;;;13.15;10.10;;;4.60;99.90;;;;;;5099726;28;20439;-89
2020/12/04 01:40:20;;;;;;;13.68;9.45;;;4.60;99.90;;;;;;5101411;28;20012;-90
2020/12/04 01:42:47;;;;;;;13.52;10.07;;;4.60;99.90;;;;;;5104951;28;20038;-89
2020/12/04 01:45:13;;;;;;;14.25;9.98;;;4.60;99.90;;;;;;5091473;28;20020;-88
2020/12/04 01:47:38;;;;;;;15.20;10.30;;;4.50;99.90;;;;;;5095266;28;20028;-87
2020/12/04 01:50:07;;;;;;;15.13;9.82;;;4.50;99.90;;;;;;5100770;28;20081;-89
2020/12/04 01:52:33;;;;;;;13.95;10.15;;;4.50;99.90;;;;;;5107171;28;20016;-88
2020/12/04 01:55:00;;;;;;;12.48;9.07;;;4.50;99.90;;;;;;5106892;28;20027;-89
2020/12/04 01:57:28;;;;;;;13.85;9.32;;;4.50;99.90;;;;;;5094980;28;20101;-88
2020/12/04 01:59:54;;;;;;;13.10;8.88;;;4.50;99.90;;;;;;5106552;28;20023;-89
2020/12/04 02:02:23;;;;;;;12.95;9.32;;;4.50;99.90;;;;;;5114285;28;20027;-89
2020/12/04 02:04:49;;;;;;;13.60;8.90;;;4.50;99.90;;;;;;5094622;28;20020;-90
2020/12/04 02:07:49;;;;;;;13.23;9.27;;;4.50;99.90;;;;;;5094570;28;20162;-90
2020/12/04 02:10:36;;;;;;;13.05;9.82;;;4.50;99.90;;;;;;5093825;28;20048;-90
2020/12/04 02:13:02;;;;;;;12.10;9.38;;;4.50;99.90;;;;;;5096514;28;20017;-90
2020/12/04 02:15:28;;;;;;;15.23;9.68;;;4.40;99.90;;;;;;5094697;28;20020;-89
2020/12/04 02:17:57;;;;;;;12.90;9.15;;;4.40;99.90;;;;;;5096462;28;20472;-89
2020/12/04 02:20:23;;;;;;;13.18;9.00;;;4.40;99.90;;;;;;5096351;28;20115;-90
2020/12/04 02:22:49;;;;;;;13.30;9.10;;;4.40;99.90;;;;;;5095371;28;20024;-89
2020/12/04 02:25:16;;;;;;;14.50;9.45;;;4.40;99.90;;;;;;5095801;28;20456;-90
2020/12/04 02:27:48;;;;;;;13.63;9.45;;;4.40;99.90;;;;;;5096407;28;20020;-90
2020/12/04 02:30:27;;;;;;;13.18;9.57;;;4.40;99.90;;;;;;5097262;28;20036;-89
2020/12/04 02:32:55;;;;;;;13.55;9.82;;;4.40;99.90;;;;;;5101804;28;20020;-86
2020/12/04 02:35:21;;;;;;;12.75;9.00;;;4.40;99.90;;;;;;5101939;28;20076;-88
2020/12/04 02:37:46;;;;;;;12.60;9.57;;;4.30;99.90;;;;;;5099134;28;20406;-90
2020/12/04 02:40:12;;;;;;;13.75;9.60;;;4.30;99.90;;;;;;5099055;28;20025;-87
2020/12/04 02:42:41;;;;;;;13.45;9.35;;;4.30;99.90;;;;;;5100440;28;20599;-90
2020/12/04 02:45:06;;;;;;;13.50;9.15;;;4.40;99.90;;;;;;5100310;28;20026;-89
2020/12/04 02:47:32;;;;;;;12.50;9.02;;;4.30;99.90;;;;;;5100413;28;20420;-90
2020/12/04 02:49:57;;;;;;;12.27;9.07;;;4.30;99.90;;;;;;5097873;28;20097;-89
2020/12/04 02:52:23;;;;;;;11.23;8.57;;;4.30;99.90;;;;;;5098647;28;20385;-90
2020/12/04 02:54:49;;;;;;;12.43;8.90;;;4.40;99.90;;;;;;5097615;28;20028;-88
2020/12/04 02:57:15;;;;;;;13.10;9.18;;;4.40;99.90;;;;;;5097735;28;20042;-89
2020/12/04 02:59:41;;;;;;;12.48;8.90;;;4.40;99.90;;;;;;5101020;28;20055;-87
2020/12/04 03:02:06;;;;;;;15.20;9.73;;;4.40;99.90;;;;;;5098645;28;20416;-89
2020/12/04 03:04:35;;;;;;;13.13;9.07;;;4.30;99.90;;;;;;5098892;28;20028;-88
2020/12/04 03:07:00;;;;;;;11.88;8.80;;;4.40;99.90;;;;;;5097348;28;20059;-91
2020/12/04 03:09:26;;;;;;;14.43;9.23;;;4.30;99.90;;;;;;5097571;28;20075;-88
2020/12/04 03:11:56;;;;;;;12.70;8.85;;;4.30;99.90;;;;;;5098637;28;20020;-90
2020/12/04 03:14:22;;;;;;;10.80;7.82;;;4.40;99.90;;;;;;5099317;28;20406;-92
2020/12/04 03:16:48;;;;;;;11.95;8.75;;;4.40;99.90;;;;;;5098590;28;20023;-89
2020/12/04 03:19:14;;;;;;;11.95;8.60;;;4.40;99.90;;;;;;5096988;28;20484;-89
2020/12/04 03:21:40;;;;;;;13.52;9.23;;;4.40;99.90;;;;;;5098932;28;20089;-90
2020/12/04 03:24:06;;;;;;;18.63;9.32;;;4.40;99.90;;;;;;5097928;28;20028;-88
2020/12/04 03:26:32;;;;;;;12.57;8.95;;;4.40;99.90;;;;;;5097596;28;20088;-90
2020/12/04 03:28:57;;;;;;;12.85;8.55;;;4.40;99.90;;;;;;5097753;28;20094;-90
2020/12/04 03:31:23;;;;;;;11.98;8.27;;;4.40;99.90;;;;;;5098365;28;20032;-90
2020/12/04 03:33:48;;;;;;;12.38;9.07;;;4.40;99.90;;;;;;5098021;28;20013;-89
2020/12/04 03:36:14;;;;;;;11.63;8.02;;;4.40;99.90;;;;;;5097964;28;20097;-87
2020/12/04 03:38:40;;;;;;;12.07;7.75;;;4.40;99.90;;;;;;5096098;28;20016;-89
2020/12/04 03:41:05;;;;;;;13.88;9.65;;;4.40;99.90;;;;;;5096636;28;20016;-88
2020/12/04 03:43:31;;;;;;;12.15;8.80;;;4.40;99.90;;;;;;5095867;28;20115;-90
2020/12/04 03:45:57;;;;;;;12.77;8.30;;;4.40;99.90;;;;;;5095733;28;20462;-88
2020/12/04 03:48:24;;;;;;;12.70;8.35;;;4.40;99.90;;;;;;5098293;28;20049;-91
2020/12/04 03:50:50;;;;;;;12.20;8.35;;;4.40;99.90;;;;;;5096833;28;20397;-89
2020/12/04 03:53:16;;;;;;;12.55;8.02;;;4.50;99.90;;;;;;5100528;28;20024;-90
2020/12/04 03:55:41;;;;;;;11.40;7.65;;;4.50;99.90;;;;;;5096766;28;20098;-91
2020/12/04 03:58:07;;;;;;;11.15;7.95;;;4.50;99.90;;;;;;5096064;28;20020;-90
2020/12/04 04:00:32;;;;;;;10.82;7.63;;;4.50;99.90;;;;;;5098043;28;20100;-89
2020/12/04 04:02:58;;;;;;;12.05;8.23;;;4.50;99.90;;;;;;5097515;28;20012;-90
2020/12/04 04:05:23;;;;;;;13.00;8.07;;;4.50;99.90;;;;;;5098046;28;20028;-90
2020/12/04 04:07:51;;;;;;;11.93;8.20;;;4.50;99.90;;;;;;5096292;28;20462;-90
2020/12/04 04:10:17;;;;;;;10.80;7.90;;;4.50;99.90;;;;;;5096057;28;20067;-88
2020/12/04 04:12:43;;;;;;;10.82;7.65;;;4.50;99.90;;;;;;5095645;28;20024;-89
2020/12/04 04:15:09;;;;;;;10.82;7.65;;;4.50;99.90;;;;;;5096706;28;20073;-89
2020/12/04 04:17:34;;;;;;;10.90;7.28;;;4.50;99.90;;;;;;5096392;28;20035;-90
2020/12/04 04:20:00;;;;;;;10.70;6.90;;;4.50;99.90;;;;;;5095570;28;20169;-87
2020/12/04 04:22:31;;;;;;;9.38;6.53;;;4.50;99.90;;;;;;5096835;28;20474;-89
2020/12/04 04:24:57;;;;;;;10.60;6.85;;;4.50;99.90;;;;;;5095692;28;20081;-88
2020/12/04 04:27:22;;;;;;;9.35;6.50;;;4.60;99.90;;;;;;5095625;28;20024;-89
2020/12/04 04:29:48;;;;;;;9.35;6.47;;;4.60;99.90;;;;;;5095678;28;20027;-89
2020/12/04 04:32:13;;;;;;;9.30;6.25;;;4.60;99.90;;;;;;5097000;28;20127;-88
2020/12/04 04:34:39;;;;;;;8.73;5.88;;;4.60;99.90;;;;;;5096955;28;20069;-89
2020/12/04 04:37:05;;;;;;;8.15;5.93;;;4.60;99.90;;;;;;5097234;28;20036;-89
2020/12/04 04:39:30;;;;;;;9.05;6.28;;;4.60;99.90;;;;;;5096243;28;20031;-90
2020/12/04 04:41:59;;;;;;;8.55;6.07;;;4.70;99.90;;;;;;5095841;28;20016;-89
2020/12/04 04:44:25;;;;;;;7.20;5.53;;;4.60;99.90;;;;;;5095903;28;20035;-90
2020/12/04 04:47:06;;;;;;;10.32;5.05;;;4.70;99.90;;;;;;5096805;28;20017;-92
2020/12/04 04:49:45;;;;;;;7.82;5.20;;;4.70;99.90;;;;;;5095400;28;20119;-89
2020/12/04 04:52:11;;;;;;;7.32;5.30;;;4.70;99.90;;;;;;5095291;28;20028;-91
2020/12/04 04:54:43;;;;;;;8.43;5.82;;;4.70;99.90;;;;;;5093831;28;20012;-89
2020/12/04 04:57:10;;;;;;;8.27;5.93;;;4.70;99.90;;;;;;5094917;28;20455;-90
2020/12/04 04:59:35;;;;;;;8.77;5.85;;;4.80;99.90;;;;;;5094694;28;20225;-89
2020/12/04 05:02:02;;;;;;;7.72;5.70;;;4.80;99.90;;;;;;5095723;28;20028;-89
2020/12/04 05:04:46;;;;;;;7.68;5.82;;;4.80;99.90;;;;;;5096022;28;20036;-88
2020/12/04 05:07:12;;;;;;;7.63;5.53;;;4.80;99.90;;;;;;5094607;28;20105;-88
2020/12/04 05:09:37;;;;;;;8.63;6.03;;;4.80;99.90;;;;;;5094418;28;20086;-88
2020/12/04 05:12:03;;;;;;;7.80;5.50;;;4.70;99.90;;;;;;5094130;28;20024;-89
2020/12/04 05:14:29;;;;;;;8.55;5.78;;;4.80;99.90;;;;;;5096341;28;20016;-90
2020/12/04 05:16:56;;;;;;;8.25;5.88;;;4.70;99.90;;;;;;5094465;28;20549;-90
2020/12/04 05:19:36;;;;;;;6.75;4.72;;;4.70;99.90;;;;;;5096280;28;20024;-87
2020/12/04 05:22:13;;;;;;;8.13;5.40;;;4.70;99.90;;;;;;5096099;28;20055;-89
2020/12/04 05:24:40;;;;;;;7.85;5.38;;;4.70;99.90;;;;;;5094716;28;20020;-89
2020/12/04 05:27:32;;;;;;;8.48;5.18;;;4.70;99.90;;;;;;5078103;28;20081;-91
2020/12/04 05:29:59;;;;;;;8.65;5.80;;;4.70;99.90;;;;;;5091075;28;20042;-88
2020/12/04 05:32:26;;;;;;;8.93;6.18;;;4.70;99.90;;;;;;5096227;28;20035;-88
2020/12/04 05:35:13;;;;;;;8.23;5.55;;;4.70;99.90;;;;;;5094509;28;20028;-89
2020/12/04 05:37:39;;;;;;;7.03;4.80;;;4.80;99.90;;;;;;5094379;28;20036;-88
2020/12/04 05:40:06;;;;;;;7.20;4.88;;;4.80;99.90;;;;;;5095636;28;20020;-90
2020/12/04 05:42:40;;;;;;;6.60;4.60;;;4.80;99.90;;;;;;5095661;28;20026;-89
2020/12/04 05:45:06;;;;;;;7.40;5.05;;;4.80;99.90;;;;;;5094716;28;20485;-88
2020/12/04 05:47:45;;;;;;;6.35;4.55;;;4.80;99.90;;;;;;5094895;28;20032;-89
2020/12/04 05:50:13;;;;;;;7.97;5.13;;;4.80;99.90;;;;;;5093912;28;20422;-90
2020/12/04 05:52:39;;;;;;;8.63;5.47;;;4.80;99.90;;;;;;5094929;28;20012;-89
2020/12/04 05:55:07;;;;;;;7.93;5.22;;;4.80;99.90;;;;;;5093240;28;20034;-88
2020/12/04 05:57:54;;;;;;;7.85;5.18;;;4.80;99.90;;;;;;5059653;28;20051;-90
2020/12/04 06:00:21;;;;;;;6.95;4.80;;;4.90;99.90;;;;;;5095318;28;20087;-87
2020/12/04 06:03:04;;;;;;;7.15;5.35;;;4.90;99.90;;;;;;5102096;28;20028;-91
2020/12/04 06:05:30;;;;;;;7.55;5.35;;;4.90;99.90;;;;;;5105712;28;20034;-90
2020/12/04 06:08:03;;;;;;;9.52;4.93;;;4.90;99.90;;;;;;5091631;28;20016;-90
2020/12/04 06:10:30;;;;;;;;;;;4.90;99.90;;;;;;5093392;28;20052;-89
2020/12/04 06:12:58;;;;;;;7.75;5.05;;;4.90;99.90;;;;;;5114451;28;19904;-86
2020/12/04 06:15:27;;;;;;;7.97;5.00;;;4.90;99.90;;;;;;5118570;28;20026;-86
2020/12/04 06:18:12;;;;;;;6.85;4.68;;;4.90;99.90;;;;;;5115621;28;20020;-91
2020/12/04 06:20:51;;;;;;;9.10;4.57;;;4.90;99.90;;;;;;5122711;28;20052;-90
2020/12/04 06:23:18;;;;;;;5.88;4.05;;;5.00;99.90;;;;;;5103633;28;20024;-90
2020/12/04 06:25:55;;;;;;;6.45;4.28;;;5.00;99.90;;;;;;5114634;28;20134;-89
2020/12/04 06:28:32;;;;;;;8.70;5.30;;;5.00;99.90;;;;;;5097638;28;20031;-91
2020/12/04 06:31:00;;;;;;;5.80;4.22;;;5.00;99.90;;;;;;5114241;28;20032;-91
2020/12/04 06:33:32;;;;;;;5.65;3.85;;;5.10;99.90;;;;;;5107893;28;20020;-92
2020/12/04 06:35:57;;;;;;;4.80;3.58;;;5.10;99.90;;;;;;5097126;28;20073;-90
2020/12/04 06:38:38;;;;;;;6.70;4.25;;;5.20;99.90;;;;;;5098725;28;20424;-92
2020/12/04 06:41:23;;;;;;;5.47;4.07;;;5.30;99.90;;;;;;5096825;28;20027;-91
2020/12/04 06:43:50;;;;;;;6.22;4.30;;;5.30;99.90;;;;;;5095791;28;20084;-91
2020/12/04 06:46:34;;;;;;;7.90;4.10;;;5.40;99.90;;;;;;5141582;22;20061;-90
2020/12/04 06:49:11;;;;;;;;;;;5.30;99.90;;;;;;5052361;28;20029;-90
2020/12/04 06:51:39;;;;;;;5.45;3.80;;;5.30;99.90;;;;;;5052564;28;20013;-90
2020/12/04 06:54:28;;;;;;;6.65;4.28;;;5.40;99.90;;;;;;5052728;28;20451;-90
2020/12/04 06:56:57;;;;;;;6.63;4.40;;;5.40;99.90;;;;;;5052285;28;20025;-91
2020/12/04 06:59:58;;;;;;;6.50;4.15;;;5.40;99.90;;;;;;5052231;28;20062;-92
2020/12/04 07:02:43;;;;;;;5.55;3.88;;;5.40;99.90;;;;;;5045390;28;20499;-91
2020/12/04 07:05:15;;;;;;;6.13;3.55;;;5.40;99.90;;;;;;5052192;28;20025;-90
2020/12/04 07:07:41;;;;;;;6.55;4.00;;;5.50;99.90;;;;;;5050775;28;20401;-91
2020/12/04 07:10:10;;;;;;;6.45;3.97;;;5.50;99.90;;;;;;5035617;28;20033;-92
2020/12/04 07:12:38;;;;;;;6.35;3.78;;;5.50;99.90;;;;;;5052031;28;20071;-92
2020/12/04 07:15:12;;;;;;;5.57;3.78;;;5.50;99.90;;;;;;5052122;28;20035;-91
2020/12/04 07:17:41;;;;;;;6.07;4.00;;;5.50;99.90;;;;;;5053280;28;20033;-91
2020/12/04 07:20:16;;;;;;;6.05;3.63;;;5.60;99.90;;;;;;5055799;28;20021;-91
2020/12/04 07:22:48;;;;;;;6.35;2.97;;;5.60;99.90;;;;;;5039914;28;20063;-92
2020/12/04 07:25:17;;;;;;;5.38;3.47;;;5.70;99.90;;;;;;5056782;28;20049;-92
2020/12/04 07:27:46;;;;;;;7.03;3.63;;;5.70;99.90;;;;;;5056501;28;20491;-91
2020/12/04 07:30:18;;;;;;;5.00;2.83;;;5.70;99.90;;;;;;5055618;28;20032;-91
2020/12/04 07:33:15;;;;;;;5.55;3.40;;;5.70;99.90;;;;;;5055472;28;20530;-92
2020/12/04 07:35:41;;;;;;;4.88;2.97;;;5.80;99.90;;;;;;5054824;28;20036;-91
2020/12/04 07:38:13;;;;;;;5.00;3.00;;;5.80;99.90;;;;;;5054780;28;20036;-91
2020/12/04 07:40:41;;;;;;;4.40;2.90;;;5.90;99.90;;;;;;5055649;28;20083;-91
2020/12/04 07:43:24;;;;;;;3.70;2.50;;;5.80;99.90;;;;;;5054504;28;20132;-90
2020/12/04 07:45:57;;;;;;;4.63;2.90;;;5.90;99.90;;;;;;5055255;28;20033;-91
2020/12/04 07:51:34;;;;;;;4.38;2.60;;;6.00;99.90;;;;;;5055204;28;20477;-92
2020/12/04 07:54:18;;;;;;;4.15;2.70;;;6.00;99.90;;;;;;5055527;28;20029;-92
2020/12/04 07:57:05;;;;;;;4.80;2.75;;;5.90;99.90;;;;;;5040043;28;20021;-94
2020/12/04 07:59:33;;;;;;;4.85;3.03;;;5.90;99.90;;;;;;5053617;28;20053;-92
2020/12/04 08:02:06;;;;;;;4.82;3.08;;;5.90;99.90;;;;;;5054489;28;20024;-93
2020/12/04 08:04:33;;;;;;;;;;;5.90;99.90;;;;;;5055105;28;20041;-93
2020/12/04 08:07:13;;;;;;;4.35;2.70;;;5.90;99.90;;;;;;5038466;28;19913;-93
2020/12/04 08:09:43;;;;;;;5.47;3.00;;;5.90;99.90;;;;;;5055999;28;20087;-92
2020/12/04 08:12:39;;;;;;;7.40;2.88;;;6.00;99.90;;;;;;5055084;28;20029;-91
2020/12/04 08:15:18;;;;;;;4.35;2.22;;;6.00;99.90;;;;;;5044923;28;20036;-92
2020/12/04 08:17:53;;;;;;;;;;;;;;;;;;;;;
2020/12/04 08:20:20;;;;;;;5.45;2.50;;;6.10;99.90;;;;;;5056216;28;20388;-91
2020/12/04 08:22:50;;;;;;;3.63;2.38;;;6.20;99.90;;;;;;5055287;28;20476;-92
2020/12/04 08:25:23;;;;;;;4.32;2.63;;;6.20;99.90;;;;;;5055932;28;20025;-91
2020/12/04 08:27:49;;;;;;;;;;;6.20;99.90;;;;;;5055301;28;20025;-91
2020/12/04 08:30:38;;;;;;;5.30;2.85;;;6.20;99.90;;;;;;5054866;28;19915;-92
2020/12/04 08:33:26;;;;;;;4.55;2.60;;;6.30;99.90;;;;;;5055248;28;20033;-92
2020/12/04 08:35:57;;;;;;;5.47;2.63;;;6.30;99.90;;;;;;5055770;28;20029;-92
2020/12/04 08:38:28;;;;;;;5.75;2.85;;;6.30;99.90;;;;;;5053919;28;20035;-91
2020/12/04 08:41:06;;;;;;;4.32;2.70;;;6.30;99.90;;;;;;5054996;28;20550;-91
2020/12/04 08:43:49;;;;;;;4.10;2.60;;;6.30;99.90;;;;;;5038663;28;20441;-93
2020/12/04 08:46:18;;;;;;;4.50;2.85;;;6.40;99.90;;;;;;5053907;28;20136;-92
2020/12/04 08:48:44;;;;;;;4.35;2.42;;;6.30;99.90;;;;;;5053849;28;20040;-92
2020/12/04 08:51:22;;;;;;;3.40;2.30;;;6.30;99.90;;;;;;5054999;28;20409;-93
2020/12/04 08:53:53;;;;;;;5.72;2.65;;;6.30;99.90;;;;;;5055468;28;20039;-93
2020/12/04 08:56:24;;;;;;;5.00;2.40;;;6.50;99.90;;;;;;5071130;28;20025;-93
2020/12/04 08:59:04;;;;;;;3.28;2.05;;;7.20;99.90;;;;;;5054670;28;20056;-92
2020/12/04 09:01:49;;;;;;;4.28;2.08;;;8.00;99.90;;;;;;5053917;28;20024;-92
2020/12/04 09:04:22;;;;;;;2.90;1.73;;;9.10;99.90;;;;;;5055680;28;20396;-93
2020/12/04 09:06:56;;;;;;;2.75;1.83;;;10.10;98.80;;;;;;5054404;28;20457;-92
2020/12/04 09:09:26;;;;;;;2.78;1.50;;;11.00;97.20;;;;;;5053609;28;20055;-93
2020/12/04 09:15:36;;;;;;;2.70;1.30;;;12.00;94.60;;;;;;5046436;28;20112;-92
2020/12/04 09:18:12;;;;;;;2.65;1.23;;;12.50;94.10;;;;;;5043810;28;20029;-92
2020/12/04 09:20:40;;;;;;;3.38;1.00;;;11.80;93.60;;;;;;5052631;28;20036;-93
2020/12/04 09:23:42;;;;;;;2.08;0.82;;;10.80;94.10;;;;;;5055360;28;20025;-93
2020/12/04 09:26:54;;;;;;;2.90;1.38;;;9.90;95.50;;;;;;5046002;28;20447;-93
2020/12/04 09:29:38;;;;;;;3.03;1.20;;;9.20;96.50;;;;;;5053849;28;20127;-92
2020/12/04 09:32:36;;;;;;;;;;;;;;;;;;;;;
2020/12/04 09:35:15;;;;;;;1.90;1.40;;;8.40;97.70;;;;;;5053417;28;20037;-93
2020/12/04 09:41:06;;;;;;;3.05;1.23;;;8.10;98.80;;;;;;5046940;28;20051;-95
2020/12/04 09:43:35;;;;;;;2.28;1.23;;;7.90;99.20;;;;;;5019172;28;20041;-92
2020/12/04 09:46:04;;;;;;;2.90;1.20;;;7.80;99.30;;;;;;5054153;28;20033;-93
2020/12/04 09:48:38;;;;;;;3.03;1.30;;;7.70;99.50;;;;;;5053803;28;20049;-92
2020/12/04 09:51:18;;;;;;;2.30;1.08;;;7.70;99.60;;;;;;5054448;28;20029;-94
2020/12/04 09:54:09;;;;;;;3.38;1.13;;;7.70;99.90;;;;;;5053276;28;20044;-92
2020/12/04 09:56:58;;;;;;;3.15;1.45;;;7.70;99.30;;;;;;5053087;28;20040;-94
2020/12/04 09:59:53;;;;;;;2.22;0.90;;;7.70;99.40;;;;;;5045948;28;20034;-93
2020/12/04 10:02:19;;;;;;;1.52;1.00;;;7.80;99.50;;;;;;5049143;28;20056;-93
2020/12/04 10:05:11;;;;;;;;;;;;;;;;;;;;;
2020/12/04 10:07:47;;;;;;;;;;;;;;;;;;;;;
2020/12/04 10:10:14;;;;;;;1.05;0.40;;;7.80;99.30;;;;;;5049398;28;20041;-93
2020/12/04 10:12:43;;;;;;;2.42;0.60;;;8.00;98.90;;;;;;5044735;28;20384;-93
2020/12/04 10:15:38;;;;;;;1.08;0.47;;;8.10;98.30;;;;;;5046961;28;20461;-94
2020/12/04 10:18:16;;;;;;;0.73;0.40;;;8.20;98.10;;;;;;5047679;28;20477;-94
2020/12/04 10:20:50;;;;;;;0.80;0.40;;;8.20;97.60;;;;;;5044462;28;20028;-94
2020/12/04 10:23:18;;;;;;;0.93;0.35;;;8.20;97.20;;;;;;5047759;28;20039;-93
2020/12/04 10:25:54;;;;;;;;;;;;;;;;;;;;;
2020/12/04 10:28:22;;;;;;;1.05;0.38;;;8.10;96.60;;;;;;5049415;28;20482;-94
2020/12/04 10:30:56;;;;;;;1.80;0.60;;;8.10;96.40;;;;;;5049286;28;20025;-93
2020/12/04 10:33:27;;;;;;;1.50;0.52;;;8.10;97.20;;;;;;5048696;28;20032;-94
2020/12/04 10:36:03;;;;;;;1.13;0.60;;;8.00;97.10;;;;;;5048277;28;20035;-93
2020/12/04 10:38:35;;;;;;;1.33;0.50;;;8.00;96.70;;;;;;5046059;28;20465;-94
2020/12/04 10:41:24;;;;;;;2.55;0.88;;;8.10;97.30;;;;;;5047804;28;20476;-94
2020/12/04 10:43:53;;;;;;;1.52;0.57;;;8.10;96.80;;;;;;5032793;28;20144;-91
2020/12/04 10:46:25;;;;;;;2.08;0.40;;;8.10;96.90;;;;;;5048189;28;20036;-94
2020/12/04 10:49:14;;;;;;;1.30;0.50;;;8.10;96.90;;;;;;5048060;28;20049;-94
2020/12/04 10:54:50;;;;;;;1.15;0.30;;;8.10;95.40;;;;;;5037622;28;20021;-92
2020/12/04 10:57:17;;;;;;;1.70;0.73;;;8.00;94.80;;;;;;5053085;28;20036;-92
2020/12/04 10:59:43;;;;;;;0.65;0.30;;;8.10;94.60;;;;;;5051708;28;20024;-92
2020/12/04 11:02:37;;;;;;;2.47;0.40;;;8.10;94.70;;;;;;5052058;28;20475;-92
2020/12/04 11:07:54;;;;;;;2.50;0.50;;;8.30;94.50;;;;;;5052358;28;20048;-93
2020/12/04 11:10:22;;;;;;;0.50;0.30;;;8.30;94.10;;;;;;5048789;28;20025;-91
2020/12/04 11:13:09;;;;;;;0.70;0.22;;;8.30;93.40;;;;;;5051668;28;20074;-92
2020/12/04 11:15:42;;;;;;;1.10;0.30;;;8.50;93.40;;;;;;5039875;28;20052;-93
2020/12/04 11:18:08;;;;;;;0.40;0.30;;;9.00;92.40;;;;;;5050787;28;20040;-92
2020/12/04 11:20:47;;;;;;;0.80;0.47;;;9.30;91.80;;;;;;5051657;28;20029;-93
2020/12/04 11:23:26;;;;;;;0.82;0.30;;;10.00;91.90;;;;;;5052494;28;20025;-92
2020/12/04 11:25:58;;;;;;;1.02;0.20;;;11.10;89.00;;;;;;5037622;28;20037;-92
2020/12/04 11:29:01;;;;;;;1.15;0.30;;;12.20;85.40;;;;;;5052913;28;20021;-93
2020/12/04 11:31:27;;;;;;;0.73;0.25;;;13.20;79.70;;;;;;5035908;28;20386;-93
2020/12/04 11:34:07;;;;;;;0.63;0.20;;;13.30;76.30;;;;;;5052447;28;20071;-92
2020/12/04 11:36:39;;;;;;;0.55;0.30;;;12.60;75.70;;;;;;5050173;28;20025;-94
2020/12/04 11:39:46;;;;;;;0.95;0.60;;;12.80;77.70;;;;;;5050861;28;20384;-92
2020/12/04 11:42:12;;;;;;;;;;;12.50;74.30;;;;;;5050820;28;20074;-93
2020/12/04 11:44:47;;;;;;;0.60;0.20;;;11.60;78.40;;;;;;5049793;28;19912;-93
2020/12/04 11:47:26;;;;;;;0.82;0.30;;;11.00;80.40;;;;;;5049073;28;20057;-94
2020/12/04 11:49:52;;;;;;;1.23;0.60;;;10.30;82.10;;;;;;5049008;28;20051;-92
2020/12/04 11:52:38;;;;;;;0.52;0.30;;;9.90;86.30;;;;;;5048411;28;20029;-94
2020/12/04 11:55:11;;;;;;;0.60;0.30;;;9.60;87.60;;;;;;5048927;28;20037;-92
2020/12/04 11:57:40;;;;;;;0.93;0.40;;;9.40;88.20;;;;;;5049920;28;20531;-93
2020/12/04 12:00:11;;;;;;;3.13;0.40;;;9.20;89.50;;;;;;5048048;28;20128;-92
2020/12/04 12:02:49;;;;;;;1.23;0.40;;;9.00;88.40;;;;;;5049623;28;20033;-93
2020/12/04 12:05:21;;;;;;;0.80;0.40;;;8.90;90.30;;;;;;5049704;28;20568;-94
2020/12/04 12:07:48;;;;;;;0.57;0.40;;;8.90;91.10;;;;;;5050188;28;20031;-93
2020/12/04 12:10:52;;;;;;;1.23;0.43;;;8.90;92.10;;;;;;5035688;28;20078;-93
2020/12/04 12:13:19;;;;;;;0.90;0.40;;;8.90;91.60;;;;;;5038059;28;20037;-92
2020/12/04 12:16:06;;;;;;;2.35;0.50;;;9.00;91.00;;;;;;5050935;28;20032;-93
2020/12/04 12:18:35;;;;;;;1.23;0.40;;;9.00;91.40;;;;;;5049073;28;20540;-93
2020/12/04 12:21:24;;;;;;;;;;;;;;;;;;;;;
2020/12/04 12:23:51;;;;;;;0.90;0.40;;;9.00;91.90;;;;;;5049345;28;20029;-92
2020/12/04 12:26:18;;;;;;;0.93;0.40;;;9.00;92.20;;;;;;5048981;28;20032;-94
2020/12/04 12:29:03;;;;;;;1.58;0.55;;;9.00;91.70;;;;;;5017555;28;20025;-94
2020/12/04 12:31:34;;;;;;;1.05;0.40;;;8.90;91.70;;;;;;5049046;28;20037;-92
2020/12/04 12:34:20;;;;;;;1.02;0.40;;;8.80;92.50;;;;;;5033385;28;20392;-91
2020/12/04 12:36:48;;;;;;;1.92;0.40;;;8.80;93.30;;;;;;5049529;28;20563;-91
2020/12/04 12:39:21;;;;;;;1.05;0.40;;;8.80;92.20;;;;;;5048915;28;20439;-93
2020/12/04 12:41:47;;;;;;;1.33;0.60;;;8.80;92.50;;;;;;5048882;28;20449;-92
2020/12/04 12:44:18;;;;;;;1.23;0.40;;;8.80;92.20;;;;;;5032733;28;20106;-91
2020/12/04 12:46:54;;;;;;;0.63;0.30;;;8.70;92.30;;;;;;5049147;28;20021;-90
2020/12/04 12:49:24;;;;;;;0.57;0.40;;;8.70;92.20;;;;;;5048950;28;20055;-92
2020/12/04 12:52:03;;;;;;;1.10;0.45;;;8.60;91.00;;;;;;5048547;28;20098;-90
2020/12/04 12:54:30;;;;;;;0.40;0.40;;;8.50;90.60;;;;;;5049077;28;20115;-91
2020/12/04 12:57:02;;;;;;;2.13;0.60;;;8.50;91.10;;;;;;5048750;28;20160;-91
2020/12/04 12:59:28;;;;;;;2.13;0.60;;;8.60;91.50;;;;;;5048909;28;20032;-93
2020/12/04 13:01:56;;;;;;;2.15;0.50;;;8.80;92.30;;;;;;5048957;28;20536;-95
2020/12/04 13:04:24;;;;;;;1.50;0.40;;;8.90;92.30;;;;;;5032372;28;20044;-93
2020/12/04 13:06:51;;;;;;;1.15;0.40;;;8.90;92.50;;;;;;5049130;28;20336;-91
2020/12/04 13:09:26;;;;;;;2.08;0.40;;;8.80;91.50;;;;;;5047713;28;20025;-92
2020/12/04 13:11:54;;;;;;;1.77;0.73;;;8.70;91.70;;;;;;5047871;28;20582;-93
2020/12/04 13:14:21;;;;;;;2.05;0.50;;;8.60;91.60;;;;;;5049828;28;20027;-92
2020/12/04 13:17:05;;;;;;;1.30;0.45;;;8.50;92.30;;;;;;5049003;28;20449;-92
2020/12/04 13:19:35;;;;;;;0.57;0.40;;;8.50;92.50;;;;;;5047952;28;20119;-90
2020/12/04 13:22:05;;;;;;;0.30;0.28;;;8.50;91.10;;;;;;5046585;28;20041;-89
2020/12/04 13:24:37;;;;;;;1.05;0.30;;;8.40;91.20;;;;;;5044932;28;20114;-90
2020/12/04 13:27:14;;;;;;;2.33;0.50;;;8.50;90.90;;;;;;5047587;28;20020;-90
2020/12/04 13:29:59;;;;;;;1.02;0.50;;;8.40;91.50;;;;;;5049035;28;20029;-91
2020/12/04 13:32:45;;;;;;;1.15;0.50;;;8.40;92.40;;;;;;5032851;28;20044;-92
2020/12/04 13:35:17;;;;;;;1.58;0.40;;;8.40;91.20;;;;;;5047853;28;20029;-90
2020/12/04 13:37:46;;;;;;;1.50;0.40;;;8.40;91.70;;;;;;5045349;28;20060;-91
2020/12/04 13:40:15;;;;;;;2.28;0.40;;;8.40;91.40;;;;;;5045890;28;20395;-92